createdAt,value
2023-02-15T00:01:12.356Z,9.93
2023-02-15T00:06:14.842Z,10.07
2023-02-15T00:11:39.553Z,8.70
2023-02-15T00:16:43.829Z,9.87
2023-02-15T00:21:47.026Z,8.90
2023-02-15T00:26:50.404Z,7.47
2023-02-15T00:31:53.605Z,10.07
2023-02-15T00:36:56.560Z,8.97
2023-02-15T00:41:59.108Z,9.60
2023-02-15T00:47:01.565Z,8.57
2023-02-15T00:52:04.144Z,9.10
2023-02-15T00:57:06.715Z,9.57
2023-02-15T01:02:09.236Z,6.80
2023-02-15T01:07:11.674Z,9.17
2023-02-15T01:12:14.117Z,8.87
2023-02-15T01:17:16.528Z,9.40
2023-02-15T01:22:20.395Z,9.60
2023-02-15T01:27:23.314Z,8.60
2023-02-15T01:32:26.130Z,8.17
2023-02-15T01:37:28.771Z,7.63
2023-02-15T01:42:31.392Z,9.37
2023-02-15T01:47:41.647Z,8.17
2023-02-15T01:52:56.853Z,9.40
2023-02-15T01:57:59.683Z,8.43
2023-02-15T02:03:02.714Z,9.27
2023-02-15T02:08:05.643Z,8.33
2023-02-15T02:13:08.563Z,8.53
2023-02-15T02:18:34.143Z,8.93
2023-02-15T02:23:57.778Z,9.17
2023-02-15T02:29:00.150Z,7.43
2023-02-15T02:34:05.174Z,9.10
2023-02-15T02:39:35.838Z,8.67
2023-02-15T02:45:16.681Z,8.47
2023-02-15T02:50:29.255Z,8.77
2023-02-15T02:55:59.834Z,8.97
2023-02-15T03:01:15.030Z,8.70
2023-02-15T03:06:27.497Z,9.60
2023-02-15T03:11:30.876Z,8.93
2023-02-15T03:16:34.044Z,8.47
2023-02-15T03:21:39.571Z,8.40
2023-02-15T03:26:47.247Z,8.83
2023-02-15T03:31:56.520Z,9.17
2023-02-15T03:37:11.055Z,9.20
2023-02-15T03:42:26.038Z,8.90
2023-02-15T03:47:33.414Z,8.60
2023-02-15T03:52:38.274Z,9.40
2023-02-15T03:57:59.543Z,9.27
2023-02-15T04:03:28.161Z,8.17
2023-02-15T04:08:49.144Z,7.67
2023-02-15T04:13:57.452Z,8.90
2023-02-15T04:19:18.766Z,8.70
2023-02-15T04:24:40.153Z,9.63
2023-02-15T04:29:42.594Z,9.57
2023-02-15T04:34:45.166Z,10.17
2023-02-15T04:39:47.563Z,9.73
2023-02-15T04:44:50.304Z,9.57
2023-02-15T04:49:52.892Z,8.73
2023-02-15T04:54:55.501Z,8.30
2023-02-15T05:00:00.061Z,8.97
2023-02-15T05:05:02.672Z,8.73
2023-02-15T05:10:05.457Z,9.40
2023-02-15T05:15:08.395Z,8.77
2023-02-15T05:20:11.158Z,8.43
2023-02-15T05:25:32.527Z,8.60
2023-02-15T05:30:35.197Z,9.33
2023-02-15T05:35:37.823Z,9.10
2023-02-15T05:40:40.223Z,8.77
2023-02-15T05:45:46.770Z,9.03
2023-02-15T05:51:02.528Z,9.10
2023-02-15T05:56:06.829Z,8.80
2023-02-15T06:01:14.630Z,8.93
2023-02-15T06:06:17.074Z,8.97
2023-02-15T06:11:19.469Z,8.80
2023-02-15T06:16:22.243Z,8.63
2023-02-15T06:21:24.744Z,8.67
2023-02-15T06:26:27.233Z,8.50
2023-02-15T06:31:29.752Z,9.23
2023-02-15T06:36:33.003Z,8.90
2023-02-15T06:41:35.516Z,9.10
2023-02-15T06:46:38.011Z,8.63
2023-02-15T06:51:40.534Z,8.63
2023-02-15T06:56:44.540Z,8.50
2023-02-15T07:01:47.016Z,8.50
2023-02-15T07:06:49.536Z,7.30
2023-02-15T07:12:10.724Z,9.13
2023-02-15T07:17:34.461Z,10.50
2023-02-15T07:22:37.355Z,9.77
2023-02-15T07:27:40.346Z,10.37
2023-02-15T07:33:04.986Z,9.57
2023-02-15T07:38:08.050Z,9.53
2023-02-15T07:43:10.492Z,9.53
2023-02-15T07:48:12.933Z,9.70
2023-02-15T07:53:15.635Z,8.80
2023-02-15T07:58:18.043Z,8.83
2023-02-15T08:03:21.175Z,9.67
2023-02-15T08:08:32.993Z,9.30
2023-02-15T08:13:35.387Z,8.93
2023-02-15T08:18:38.023Z,9.50
2023-02-15T08:23:40.599Z,9.73
2023-02-15T08:28:43.901Z,8.77
2023-02-15T08:33:48.030Z,8.57
2023-02-15T08:38:51.006Z,10.43
2023-02-15T08:43:58.870Z,9.97
2023-02-15T08:49:02.294Z,9.13
2023-02-15T08:54:11.552Z,10.07
2023-02-15T08:59:23.372Z,10.47
2023-02-15T09:04:25.868Z,10.43
2023-02-15T09:09:28.281Z,10.57
2023-02-15T09:14:30.767Z,10.67
2023-02-15T09:19:33.585Z,10.13
2023-02-15T09:24:36.106Z,11.30
2023-02-15T09:29:38.602Z,12.00
2023-02-15T09:34:41.287Z,10.20
2023-02-15T09:39:47.270Z,10.60
2023-02-15T09:45:18.606Z,10.30
2023-02-15T09:50:38.541Z,11.30
2023-02-15T09:55:50.064Z,11.10
2023-02-15T10:01:12.742Z,10.93
2023-02-15T10:06:47.620Z,11.27
2023-02-15T10:12:18.646Z,11.50
2023-02-15T10:17:30.622Z,11.43
2023-02-15T10:22:48.692Z,11.63
2023-02-15T10:27:52.351Z,11.87
2023-02-15T10:32:59.508Z,11.53
2023-02-15T10:38:11.666Z,12.77
2023-02-15T10:43:51.337Z,11.27
2023-02-15T10:49:13.851Z,9.97
2023-02-15T10:54:24.102Z,12.30
2023-02-15T10:59:47.047Z,11.47
2023-02-15T11:05:11.259Z,12.90
2023-02-15T11:10:46.347Z,12.60
2023-02-15T11:16:05.730Z,11.00
2023-02-15T11:21:33.776Z,11.63
2023-02-15T11:26:45.512Z,13.50
2023-02-15T11:32:20.235Z,12.87
2023-02-15T11:37:30.178Z,13.13
2023-02-15T11:42:34.252Z,13.47
2023-02-15T11:47:36.729Z,13.70
2023-02-15T11:52:39.161Z,13.90
2023-02-15T11:57:47.783Z,13.90
2023-02-15T12:02:56.072Z,14.03
2023-02-15T12:08:38.670Z,14.13
2023-02-15T12:14:01.743Z,15.77
2023-02-15T12:19:04.191Z,15.00
2023-02-15T12:24:33.576Z,14.63
2023-02-15T12:29:59.830Z,14.40
2023-02-15T12:35:23.298Z,15.83
2023-02-15T12:40:31.834Z,15.47
2023-02-15T12:45:37.357Z,15.30
2023-02-15T12:50:41.449Z,15.23
2023-02-15T12:55:58.631Z,15.30
2023-02-15T13:01:22.548Z,15.50
2023-02-15T13:06:25.498Z,16.10
2023-02-15T13:11:38.556Z,15.10
2023-02-15T13:16:42.077Z,11.03
2023-02-15T13:21:49.830Z,15.03
2023-02-15T13:27:09.296Z,14.03
2023-02-15T13:32:42.187Z,14.20
2023-02-15T13:38:19.184Z,15.07
2023-02-15T13:43:55.365Z,12.17
2023-02-15T13:49:19.944Z,14.77
2023-02-15T13:54:28.471Z,14.23
2023-02-15T13:59:48.188Z,13.80
2023-02-15T14:05:07.867Z,12.83
2023-02-15T14:10:16.141Z,14.33
2023-02-15T14:15:30.942Z,13.77
2023-02-15T14:21:07.963Z,14.00
2023-02-15T14:26:26.171Z,14.27
2023-02-15T14:31:51.278Z,12.60
2023-02-15T14:36:55.158Z,12.77
2023-02-15T14:42:10.818Z,12.30
2023-02-15T14:47:26.431Z,10.10
2023-02-15T14:52:28.926Z,11.20
2023-02-15T14:57:35.927Z,11.90
2023-02-15T15:02:52.951Z,11.10
2023-02-15T15:07:58.681Z,10.03
2023-02-15T15:13:33.351Z,9.57
2023-02-15T15:18:44.603Z,11.43
2023-02-15T15:23:47.128Z,10.73
2023-02-15T15:28:49.553Z,10.10
2023-02-15T15:34:29.517Z,9.83
2023-02-15T15:39:40.911Z,11.17
2023-02-15T15:45:20.214Z,10.53
2023-02-15T15:50:23.317Z,10.93
2023-02-15T15:55:28.881Z,10.90
2023-02-15T16:00:50.919Z,11.03
2023-02-15T16:05:56.512Z,11.17
2023-02-15T16:11:01.146Z,12.10
2023-02-15T16:16:03.763Z,12.27
2023-02-15T16:21:06.537Z,11.23
2023-02-15T16:26:38.983Z,11.73
2023-02-15T16:31:41.144Z,11.87
2023-02-15T16:36:43.192Z,11.90
2023-02-15T16:41:47.592Z,11.97
2023-02-15T16:46:55.195Z,11.67
2023-02-15T16:52:08.030Z,10.40
2023-02-15T16:57:25.104Z,11.77
2023-02-15T17:02:54.420Z,11.10
2023-02-15T17:08:44.941Z,11.20
2023-02-15T17:14:05.169Z,12.20
2023-02-15T17:19:18.633Z,10.90
2023-02-15T17:24:43.833Z,11.83
2023-02-15T17:29:55.440Z,12.27
2023-02-15T17:35:05.044Z,11.90
2023-02-15T17:40:29.213Z,12.27
2023-02-15T17:45:44.983Z,10.47
2023-02-15T17:50:47.294Z,13.60
2023-02-15T17:55:49.461Z,14.27
2023-02-15T18:01:21.992Z,12.90
2023-02-15T18:06:43.074Z,11.63
2023-02-15T18:11:48.750Z,11.93
2023-02-15T18:16:51.177Z,12.40
2023-02-15T18:21:55.782Z,12.20
2023-02-15T18:26:57.847Z,12.30
2023-02-15T18:32:01.529Z,11.77
2023-02-15T18:37:06.479Z,12.03
2023-02-15T18:42:22.899Z,12.40
2023-02-15T18:47:26.010Z,11.23
2023-02-15T18:52:34.610Z,12.03
2023-02-15T18:57:36.710Z,13.80
2023-02-15T19:02:38.858Z,14.03
2023-02-15T19:07:43.712Z,14.37
2023-02-15T19:12:46.769Z,15.07
2023-02-15T19:17:49.354Z,14.90
2023-02-15T19:22:55.479Z,14.57
2023-02-15T19:27:58.687Z,11.00
2023-02-15T19:33:02.222Z,12.60
2023-02-15T19:38:14.703Z,11.70
2023-02-15T19:43:20.476Z,10.43
2023-02-15T19:48:23.291Z,10.50
2023-02-15T19:53:28.739Z,12.13
2023-02-15T19:58:31.271Z,13.97
2023-02-15T20:03:33.433Z,13.23
2023-02-15T20:08:35.476Z,12.57
2023-02-15T20:13:38.101Z,12.53
2023-02-15T20:18:44.655Z,13.23
2023-02-15T20:23:46.965Z,13.90
2023-02-15T20:28:49.259Z,13.57
2023-02-15T20:33:53.100Z,11.10
2023-02-15T20:38:57.415Z,14.40
2023-02-15T20:43:59.760Z,13.87
2023-02-15T20:49:01.791Z,12.43
2023-02-15T20:54:21.067Z,13.43
2023-02-15T20:59:32.605Z,11.83
2023-02-15T21:04:34.986Z,12.70
2023-02-15T21:09:37.267Z,12.77
2023-02-15T21:14:39.329Z,12.83
2023-02-15T21:19:42.299Z,11.70
2023-02-15T21:24:51.817Z,11.57
2023-02-15T21:29:54.184Z,10.60
2023-02-15T21:34:56.330Z,10.30
2023-02-15T21:39:58.558Z,11.77
2023-02-15T21:45:19.395Z,10.63
2023-02-15T21:50:44.226Z,10.10
2023-02-15T21:55:46.306Z,12.43
2023-02-15T22:00:49.158Z,12.10
2023-02-15T22:05:52.276Z,12.20
2023-02-15T22:10:56.958Z,11.90
2023-02-15T22:15:59.613Z,13.30
2023-02-15T22:21:03.701Z,12.20
2023-02-15T22:26:14.179Z,9.73
2023-02-15T22:31:22.737Z,12.70
2023-02-15T22:36:29.272Z,11.17
2023-02-15T22:41:32.057Z,11.43
2023-02-15T22:46:34.269Z,10.40
2023-02-15T22:51:36.319Z,10.57
2023-02-15T22:56:47.622Z,11.97
2023-02-15T23:01:50.418Z,10.73
2023-02-15T23:06:57.560Z,10.07
2023-02-15T23:11:59.630Z,8.63
2023-02-15T23:17:02.701Z,9.80
2023-02-15T23:22:04.801Z,10.03
2023-02-15T23:27:25.749Z,9.23
2023-02-15T23:32:28.041Z,10.20
2023-02-15T23:37:30.107Z,9.67
2023-02-15T23:42:35.688Z,9.73
2023-02-15T23:47:56.218Z,10.13
2023-02-15T23:52:59.747Z,9.23
2023-02-15T23:58:07.255Z,8.63
